createdAt,value
2023-04-09T00:00:50.480Z,16.40
2023-04-09T00:03:18.510Z,13.80
2023-04-09T00:05:46.237Z,14.73
2023-04-09T00:08:13.925Z,13.77
2023-04-09T00:10:42.153Z,14.27
2023-04-09T00:13:09.663Z,15.30
2023-04-09T00:15:37.366Z,12.35
2023-04-09T00:18:05.649Z,15.15
2023-04-09T00:20:33.284Z,12.70
2023-04-09T00:23:00.855Z,11.65
2023-04-09T00:25:28.889Z,11.52
2023-04-09T00:27:56.892Z,14.00
2023-04-09T00:30:24.685Z,12.15
2023-04-09T00:32:52.565Z,11.53
2023-04-09T00:35:20.547Z,13.45
2023-04-09T00:37:48.520Z,12.15
2023-04-09T00:40:17.643Z,13.82
2023-04-09T00:42:45.691Z,13.88
2023-04-09T00:45:13.314Z,13.03
2023-04-09T00:47:43.124Z,12.40
2023-04-09T00:50:10.970Z,12.70
2023-04-09T00:52:39.168Z,18.62
2023-04-09T00:55:08.142Z,19.02
2023-04-09T00:57:35.866Z,18.33
2023-04-09T01:00:04.687Z,15.07
2023-04-09T01:02:33.081Z,13.02
2023-04-09T01:05:01.157Z,12.95
2023-04-09T01:08:06.488Z,12.73
2023-04-09T01:10:53.107Z,14.27
2023-04-09T01:13:49.292Z,13.57
2023-04-09T01:16:19.431Z,11.98
2023-04-09T01:18:55.312Z,12.63
2023-04-09T01:21:27.555Z,12.37
2023-04-09T01:24:32.219Z,9.73
2023-04-09T01:27:07.357Z,14.43
2023-04-09T01:29:39.830Z,14.77
2023-04-09T01:32:08.119Z,11.88
2023-04-09T01:34:36.299Z,12.55
2023-04-09T01:37:04.100Z,13.53
2023-04-09T01:39:32.717Z,12.25
2023-04-09T01:42:00.928Z,12.45
2023-04-09T01:44:29.351Z,13.10
2023-04-09T01:46:58.204Z,13.90
2023-04-09T01:49:26.002Z,14.77
2023-04-09T01:51:53.738Z,13.13
2023-04-09T01:54:21.642Z,14.10
2023-04-09T01:56:49.212Z,15.20
2023-04-09T01:59:17.028Z,13.85
2023-04-09T02:01:51.485Z,13.80
2023-04-09T02:04:34.327Z,13.45
2023-04-09T02:07:04.504Z,14.57
2023-04-09T02:09:34.349Z,13.90
2023-04-09T02:12:04.431Z,12.93
2023-04-09T02:14:33.126Z,13.17
2023-04-09T02:17:01.748Z,13.20
2023-04-09T02:19:49.654Z,12.13
2023-04-09T02:22:17.586Z,15.18
2023-04-09T02:24:46.664Z,14.05
2023-04-09T02:27:14.220Z,14.00
2023-04-09T02:29:43.562Z,14.45
2023-04-09T02:32:13.092Z,12.30
2023-04-09T02:34:40.659Z,15.27
2023-04-09T02:37:08.432Z,15.40
2023-04-09T02:39:36.169Z,13.30
2023-04-09T02:42:03.711Z,13.23
2023-04-09T02:44:31.609Z,14.55
2023-04-09T02:46:59.220Z,13.43
2023-04-09T02:49:26.914Z,14.95
2023-04-09T02:51:54.890Z,14.63
2023-04-09T02:54:22.561Z,14.63
2023-04-09T02:56:50.132Z,12.93
2023-04-09T02:59:18.187Z,12.88
2023-04-09T03:01:45.960Z,14.63
2023-04-09T03:04:13.661Z,12.97
2023-04-09T03:06:41.588Z,13.07
2023-04-09T03:09:09.680Z,12.32
2023-04-09T03:11:37.560Z,11.02
2023-04-09T03:14:05.355Z,12.63
2023-04-09T03:16:32.790Z,11.17
2023-04-09T03:19:00.261Z,11.35
2023-04-09T03:21:28.156Z,13.13
2023-04-09T03:23:55.987Z,13.23
2023-04-09T03:26:23.606Z,12.93
2023-04-09T03:28:51.876Z,12.57
2023-04-09T03:31:20.130Z,13.43
2023-04-09T03:33:47.777Z,13.50
2023-04-09T03:36:16.282Z,12.85
2023-04-09T03:38:46.019Z,13.57
2023-04-09T03:41:14.432Z,13.17
2023-04-09T03:43:42.459Z,14.43
2023-04-09T03:46:15.773Z,13.43
2023-04-09T03:48:44.807Z,14.70
2023-04-09T03:51:16.536Z,14.45
2023-04-09T03:53:47.736Z,14.47
2023-04-09T03:56:15.451Z,14.50
2023-04-09T03:58:43.173Z,14.07
2023-04-09T04:01:12.230Z,14.70
2023-04-09T04:03:40.639Z,14.63
2023-04-09T04:06:09.179Z,13.13
2023-04-09T04:08:38.148Z,15.52
2023-04-09T04:11:06.376Z,13.77
2023-04-09T04:13:34.103Z,14.68
2023-04-09T04:16:02.343Z,15.77
2023-04-09T04:18:30.544Z,14.83
2023-04-09T04:20:58.122Z,15.82
2023-04-09T04:23:25.713Z,17.62
2023-04-09T04:25:54.262Z,15.52
2023-04-09T04:28:22.844Z,16.05
2023-04-09T04:30:50.406Z,14.73
2023-04-09T04:33:18.968Z,18.55
2023-04-09T04:35:46.899Z,22.37
2023-04-09T04:38:14.996Z,22.08
2023-04-09T04:40:42.819Z,19.40
2023-04-09T04:43:11.066Z,20.30
2023-04-09T04:45:38.745Z,18.17
2023-04-09T04:48:06.678Z,19.52
2023-04-09T04:50:34.502Z,18.62
2023-04-09T04:53:02.404Z,18.95
2023-04-09T04:55:31.137Z,18.80
2023-04-09T04:58:00.197Z,20.37
2023-04-09T05:00:28.844Z,18.23
2023-04-09T05:03:00.632Z,17.62
2023-04-09T05:05:28.522Z,18.90
2023-04-09T05:07:57.543Z,18.40
2023-04-09T05:10:25.710Z,18.98
2023-04-09T05:12:53.370Z,19.90
2023-04-09T05:15:21.742Z,20.05
2023-04-09T05:17:50.164Z,19.92
2023-04-09T05:20:17.924Z,19.53
2023-04-09T05:22:46.379Z,20.62
2023-04-09T05:25:16.224Z,19.58
2023-04-09T05:27:44.280Z,22.05
2023-04-09T05:30:12.336Z,20.02
2023-04-09T05:32:41.119Z,21.67
2023-04-09T05:35:08.915Z,20.48
2023-04-09T05:37:38.783Z,20.33
2023-04-09T05:40:07.636Z,19.37
2023-04-09T05:42:36.085Z,22.00
2023-04-09T05:45:04.493Z,21.07
2023-04-09T05:47:32.350Z,21.15
2023-04-09T05:50:00.296Z,20.83
2023-04-09T05:52:28.536Z,20.85
2023-04-09T05:54:56.270Z,20.45
2023-04-09T05:57:24.231Z,18.70
2023-04-09T05:59:53.551Z,18.80
2023-04-09T06:02:22.260Z,17.85
2023-04-09T06:04:50.100Z,18.95
2023-04-09T06:07:18.109Z,18.33
2023-04-09T06:09:46.913Z,16.13
2023-04-09T06:12:15.742Z,17.35
2023-04-09T06:14:43.237Z,17.40
2023-04-09T06:17:11.076Z,19.52
2023-04-09T06:19:39.698Z,22.67
2023-04-09T06:22:10.840Z,21.17
2023-04-09T06:24:38.396Z,17.85
2023-04-09T06:27:06.703Z,18.48
2023-04-09T06:29:34.415Z,16.87
2023-04-09T06:32:02.005Z,17.23
2023-04-09T06:34:29.775Z,17.47
2023-04-09T06:36:57.322Z,19.25
2023-04-09T06:39:24.984Z,17.35
2023-04-09T06:41:53.258Z,16.73
2023-04-09T06:44:21.825Z,16.40
2023-04-09T06:46:49.531Z,16.70
2023-04-09T06:49:17.374Z,16.65
2023-04-09T06:51:44.905Z,14.68
2023-04-09T06:54:12.437Z,11.82
2023-04-09T06:56:40.354Z,12.10
2023-04-09T06:59:07.929Z,15.90
2023-04-09T07:01:35.875Z,14.85
2023-04-09T07:04:04.291Z,13.73
2023-04-09T07:06:31.942Z,14.43
2023-04-09T07:08:59.428Z,19.12
2023-04-09T07:11:27.515Z,20.77
2023-04-09T07:13:56.889Z,19.10
2023-04-09T07:16:24.493Z,19.87
2023-04-09T07:18:52.262Z,18.50
2023-04-09T07:21:20.476Z,13.65
2023-04-09T07:23:48.063Z,13.20
2023-04-09T07:26:16.109Z,17.08
2023-04-09T07:28:43.631Z,15.70
2023-04-09T07:31:11.629Z,15.85
2023-04-09T07:33:39.453Z,12.23
2023-04-09T07:36:07.085Z,13.90
2023-04-09T07:38:34.977Z,13.27
2023-04-09T07:41:02.805Z,11.35
2023-04-09T07:43:33.652Z,12.77
2023-04-09T07:46:01.176Z,12.35
2023-04-09T07:48:29.299Z,18.60
2023-04-09T07:50:56.980Z,13.55
2023-04-09T07:53:24.953Z,10.88
2023-04-09T07:55:53.025Z,11.80
2023-04-09T07:58:20.739Z,11.88
2023-04-09T08:00:48.731Z,10.67
2023-04-09T08:03:17.641Z,10.05
2023-04-09T08:05:45.611Z,10.48
2023-04-09T08:08:13.294Z,11.57
2023-04-09T08:10:41.334Z,12.30
2023-04-09T08:13:11.481Z,12.83
2023-04-09T08:15:39.540Z,11.77
2023-04-09T08:18:07.464Z,11.35
2023-04-09T08:20:35.226Z,12.30
2023-04-09T08:23:03.060Z,8.68
2023-04-09T08:25:30.967Z,9.83
2023-04-09T08:27:58.534Z,9.35
2023-04-09T08:30:26.161Z,10.45
2023-04-09T08:32:54.253Z,10.38
2023-04-09T08:35:21.869Z,10.18
2023-04-09T08:37:49.452Z,10.30
2023-04-09T08:40:17.702Z,10.20
2023-04-09T08:42:48.269Z,9.63
2023-04-09T08:45:15.885Z,10.73
2023-04-09T08:47:45.629Z,11.70
2023-04-09T08:50:14.510Z,11.40
2023-04-09T08:52:43.392Z,10.77
2023-04-09T08:55:12.163Z,10.95
2023-04-09T08:57:40.502Z,10.23
2023-04-09T09:00:09.390Z,9.43
2023-04-09T09:02:39.458Z,11.23
2023-04-09T09:05:07.588Z,11.75
2023-04-09T09:07:35.360Z,9.95
2023-04-09T09:10:04.491Z,9.23
2023-04-09T09:12:33.082Z,10.68
2023-04-09T09:15:00.857Z,10.07
2023-04-09T09:17:28.813Z,11.48
2023-04-09T09:19:56.888Z,9.18
2023-04-09T09:22:25.401Z,10.88
2023-04-09T09:24:53.678Z,10.38
2023-04-09T09:27:36.940Z,9.03
2023-04-09T09:30:06.780Z,8.75
2023-04-09T09:32:34.936Z,8.52
2023-04-09T09:35:05.340Z,8.60
2023-04-09T09:37:34.015Z,9.32
2023-04-09T09:40:02.058Z,9.17
2023-04-09T09:42:29.739Z,9.82
2023-04-09T09:44:58.839Z,9.80
2023-04-09T09:47:27.988Z,9.50
2023-04-09T09:49:55.836Z,10.65
2023-04-09T09:52:30.246Z,9.53
2023-04-09T09:54:59.300Z,9.98
2023-04-09T09:57:27.944Z,9.63
2023-04-09T10:00:01.267Z,8.52
2023-04-09T10:02:37.941Z,9.68
2023-04-09T10:05:06.531Z,9.80
2023-04-09T10:07:34.508Z,9.43
2023-04-09T10:10:02.604Z,9.60
2023-04-09T10:12:30.656Z,10.35
2023-04-09T10:15:04.328Z,10.82
2023-04-09T10:17:32.731Z,14.87
2023-04-09T10:20:44.038Z,10.75
2023-04-09T10:23:19.057Z,11.05
2023-04-09T10:25:46.698Z,10.45
2023-04-09T10:28:18.633Z,10.63
2023-04-09T10:30:46.628Z,10.77
2023-04-09T10:33:16.679Z,11.90
2023-04-09T10:35:47.144Z,11.27
2023-04-09T10:38:15.552Z,10.60
2023-04-09T10:40:48.031Z,9.88
2023-04-09T10:43:19.944Z,10.17
2023-04-09T10:45:53.230Z,9.60
2023-04-09T10:48:22.129Z,9.60
2023-04-09T10:50:52.172Z,9.35
2023-04-09T10:53:24.501Z,10.20
2023-04-09T10:55:53.419Z,9.67
2023-04-09T10:58:21.490Z,10.60
2023-04-09T11:00:50.460Z,10.27
2023-04-09T11:03:22.347Z,10.68
2023-04-09T11:05:57.846Z,10.57
2023-04-09T11:08:32.362Z,9.30
2023-04-09T11:11:01.684Z,9.48
2023-04-09T11:13:31.574Z,9.60
2023-04-09T11:16:00.621Z,11.15
2023-04-09T11:18:30.277Z,11.02
2023-04-09T11:21:00.193Z,10.37
2023-04-09T11:23:28.652Z,8.65
2023-04-09T11:25:58.988Z,9.32
2023-04-09T11:28:26.952Z,9.50
2023-04-09T11:30:54.585Z,9.13
2023-04-09T11:33:22.481Z,9.47
2023-04-09T11:35:51.236Z,11.05
2023-04-09T11:38:18.837Z,11.43
2023-04-09T11:40:49.542Z,11.18
2023-04-09T11:43:18.102Z,9.98
2023-04-09T11:45:48.423Z,9.43
2023-04-09T11:48:22.000Z,11.25
2023-04-09T11:50:50.739Z,10.82
2023-04-09T11:53:19.877Z,11.02
2023-04-09T11:55:51.544Z,10.65
2023-04-09T11:58:23.226Z,10.17
2023-04-09T12:01:00.175Z,9.90
2023-04-09T12:03:30.761Z,10.85
2023-04-09T12:06:02.942Z,9.38
2023-04-09T12:08:31.542Z,9.93
2023-04-09T12:11:11.356Z,10.10
2023-04-09T12:13:43.314Z,9.00
2023-04-09T12:16:14.501Z,11.30
2023-04-09T12:18:42.564Z,11.27
2023-04-09T12:21:10.481Z,10.32
2023-04-09T12:23:38.962Z,10.13
2023-04-09T12:26:06.785Z,9.27
2023-04-09T12:28:34.277Z,11.32
2023-04-09T12:31:03.537Z,10.70
2023-04-09T12:33:32.333Z,9.55
2023-04-09T12:35:59.863Z,11.03
2023-04-09T12:38:27.916Z,10.77
2023-04-09T12:40:56.182Z,10.77
2023-04-09T12:43:23.659Z,9.68
2023-04-09T12:45:52.853Z,9.32
2023-04-09T12:48:21.248Z,9.83
2023-04-09T12:50:48.752Z,9.60
2023-04-09T12:53:16.251Z,9.93
2023-04-09T12:55:44.020Z,9.70
2023-04-09T12:58:11.624Z,9.63
2023-04-09T13:00:39.159Z,11.77
2023-04-09T13:03:07.141Z,10.10
2023-04-09T13:05:35.666Z,11.20
2023-04-09T13:08:03.560Z,10.15
2023-04-09T13:10:31.580Z,9.80
2023-04-09T13:12:59.377Z,8.57
2023-04-09T13:15:27.438Z,9.38
2023-04-09T13:17:56.352Z,9.52
2023-04-09T13:20:23.966Z,9.98
2023-04-09T13:22:52.450Z,9.48
2023-04-09T13:25:20.529Z,9.67
2023-04-09T13:27:48.206Z,9.55
2023-04-09T13:30:16.278Z,9.80
2023-04-09T13:32:44.297Z,14.77
2023-04-09T13:35:12.111Z,15.88
2023-04-09T13:37:39.767Z,10.63
2023-04-09T13:40:11.531Z,9.90
2023-04-09T13:42:39.071Z,10.55
2023-04-09T13:45:07.363Z,10.40
2023-04-09T13:47:34.879Z,11.32
2023-04-09T13:50:02.923Z,10.73
2023-04-09T13:52:32.157Z,10.05
2023-04-09T13:55:00.013Z,10.00
2023-04-09T13:57:27.480Z,9.18
2023-04-09T13:59:55.625Z,14.20
2023-04-09T14:02:23.895Z,10.70
2023-04-09T14:04:52.539Z,10.85
2023-04-09T14:07:20.038Z,11.10
2023-04-09T14:09:47.781Z,10.45
2023-04-09T14:12:15.622Z,9.10
2023-04-09T14:14:43.173Z,9.77
2023-04-09T14:17:13.618Z,10.52
2023-04-09T14:19:41.695Z,9.43
2023-04-09T14:22:10.342Z,10.82
2023-04-09T14:24:40.205Z,10.60
2023-04-09T14:27:08.755Z,9.40
2023-04-09T14:29:36.716Z,10.80
2023-04-09T14:32:04.295Z,10.70
2023-04-09T14:34:32.376Z,10.80
2023-04-09T14:36:59.970Z,10.75
2023-04-09T14:39:27.563Z,12.30
2023-04-09T14:41:57.166Z,10.15
2023-04-09T14:44:27.339Z,11.27
2023-04-09T14:46:56.268Z,10.27
2023-04-09T14:49:24.217Z,12.77
2023-04-09T14:51:52.185Z,10.53
2023-04-09T14:54:20.373Z,11.75
2023-04-09T14:56:47.956Z,12.30
2023-04-09T14:59:15.601Z,11.43
2023-04-09T15:01:43.536Z,11.35
2023-04-09T15:04:11.422Z,11.30
2023-04-09T15:06:39.066Z,10.90
2023-04-09T15:09:06.851Z,10.27
2023-04-09T15:11:34.802Z,10.63
2023-04-09T15:14:03.136Z,11.32
2023-04-09T15:16:33.358Z,18.63
2023-04-09T15:19:02.670Z,11.10
2023-04-09T15:21:31.657Z,11.38
2023-04-09T15:24:00.318Z,11.63
2023-04-09T15:26:28.027Z,11.82
2023-04-09T15:29:05.543Z,12.67
2023-04-09T15:31:33.567Z,16.98
2023-04-09T15:34:01.660Z,10.00
2023-04-09T15:36:30.928Z,10.50
2023-04-09T15:38:59.065Z,10.35
2023-04-09T15:41:26.963Z,9.67
2023-04-09T15:43:54.851Z,10.60
2023-04-09T15:46:22.881Z,13.07
2023-04-09T15:48:50.725Z,9.70
2023-04-09T15:51:18.406Z,10.85
2023-04-09T15:53:46.279Z,10.30
2023-04-09T15:56:16.963Z,10.27
2023-04-09T15:58:44.638Z,10.32
2023-04-09T16:01:13.053Z,9.85
2023-04-09T16:03:41.848Z,12.48
2023-04-09T16:06:15.221Z,10.73
2023-04-09T16:08:43.073Z,10.90
2023-04-09T16:11:10.816Z,11.95
2023-04-09T16:13:38.627Z,9.85
2023-04-09T16:16:07.363Z,11.38
2023-04-09T16:18:35.680Z,10.07
2023-04-09T16:21:04.331Z,9.80
2023-04-09T16:23:33.080Z,10.13
2023-04-09T16:26:00.719Z,8.93
2023-04-09T16:28:28.316Z,10.27
2023-04-09T16:30:56.251Z,10.90
2023-04-09T16:33:23.908Z,9.35
2023-04-09T16:35:51.633Z,10.63
2023-04-09T16:38:19.777Z,12.37
2023-04-09T16:40:47.486Z,12.73
2023-04-09T16:43:15.347Z,10.30
2023-04-09T16:45:43.239Z,10.40
2023-04-09T16:48:12.545Z,14.60
2023-04-09T16:50:40.752Z,9.95
2023-04-09T16:53:08.723Z,11.65
2023-04-09T16:55:36.597Z,9.27
2023-04-09T16:58:04.093Z,9.77
2023-04-09T17:00:32.092Z,8.48
2023-04-09T17:02:59.889Z,10.35
2023-04-09T17:05:27.588Z,9.52
2023-04-09T17:07:55.594Z,11.53
2023-04-09T17:10:23.094Z,13.70
2023-04-09T17:12:50.669Z,9.50
2023-04-09T17:15:18.486Z,10.50
2023-04-09T17:17:46.380Z,10.15
2023-04-09T17:20:14.140Z,10.50
2023-04-09T17:22:42.477Z,11.15
2023-04-09T17:25:11.038Z,9.65
2023-04-09T17:27:38.677Z,10.25
2023-04-09T17:30:07.310Z,9.52
2023-04-09T17:32:34.992Z,9.90
2023-04-09T17:35:03.718Z,10.20
2023-04-09T17:37:32.386Z,10.73
2023-04-09T17:40:00.325Z,10.70
2023-04-09T17:42:28.966Z,11.10
2023-04-09T17:44:57.070Z,10.30
2023-04-09T17:47:24.586Z,11.43
2023-04-09T17:49:52.834Z,9.25
2023-04-09T17:52:21.276Z,9.38
2023-04-09T17:54:50.776Z,9.90
2023-04-09T17:57:18.607Z,9.33
2023-04-09T17:59:46.849Z,9.63
2023-04-09T18:02:14.650Z,9.68
2023-04-09T18:04:42.840Z,9.15
2023-04-09T18:07:10.695Z,9.75
2023-04-09T18:09:40.243Z,10.53
2023-04-09T18:12:08.477Z,10.02
2023-04-09T18:14:36.406Z,10.13
2023-04-09T18:17:03.986Z,9.80
2023-04-09T18:19:32.093Z,9.50
2023-04-09T18:21:59.614Z,9.00
2023-04-09T18:24:28.413Z,10.93
2023-04-09T18:26:58.106Z,10.43
2023-04-09T18:29:27.506Z,10.35
2023-04-09T18:31:57.127Z,10.85
2023-04-09T18:34:25.885Z,11.30
2023-04-09T18:36:57.027Z,11.15
2023-04-09T18:39:24.899Z,10.98
2023-04-09T18:41:52.462Z,11.30
2023-04-09T18:44:20.054Z,11.75
2023-04-09T18:46:48.144Z,13.23
2023-04-09T18:49:15.858Z,11.77
2023-04-09T18:51:43.730Z,10.90
2023-04-09T18:54:11.523Z,11.70
2023-04-09T18:56:39.020Z,12.20
2023-04-09T18:59:06.816Z,12.30
2023-04-09T19:01:35.200Z,12.43
2023-04-09T19:04:03.137Z,12.68
2023-04-09T19:06:33.146Z,11.15
2023-04-09T19:09:01.656Z,12.35
2023-04-09T19:11:29.301Z,12.70
2023-04-09T19:13:56.894Z,12.40
2023-04-09T19:16:25.083Z,12.02
2023-04-09T19:18:53.063Z,13.38
2023-04-09T19:21:20.919Z,11.73
2023-04-09T19:23:49.089Z,13.67
2023-04-09T19:26:16.709Z,11.93
2023-04-09T19:28:44.527Z,12.63
2023-04-09T19:31:14.526Z,15.23
2023-04-09T19:33:42.294Z,14.02
2023-04-09T19:36:09.889Z,13.03
2023-04-09T19:38:37.764Z,15.32
2023-04-09T19:41:05.506Z,14.48
2023-04-09T19:43:33.556Z,14.30
2023-04-09T19:46:06.767Z,16.00
2023-04-09T19:48:35.534Z,14.03
2023-04-09T19:51:04.214Z,15.27
2023-04-09T19:53:32.887Z,16.67
2023-04-09T19:56:00.861Z,16.33
2023-04-09T19:58:29.068Z,17.23
2023-04-09T20:00:56.730Z,14.00
2023-04-09T20:03:24.818Z,15.85
2023-04-09T20:05:53.504Z,17.15
2023-04-09T20:08:21.334Z,17.33
2023-04-09T20:10:50.039Z,17.37
2023-04-09T20:13:17.515Z,16.27
2023-04-09T20:15:45.015Z,17.67
2023-04-09T20:18:12.827Z,15.43
2023-04-09T20:20:40.575Z,18.48
2023-04-09T20:23:08.218Z,17.23
2023-04-09T20:25:36.880Z,17.43
2023-04-09T20:28:04.896Z,19.17
2023-04-09T20:30:33.005Z,18.20
2023-04-09T20:33:01.344Z,17.95
2023-04-09T20:35:28.981Z,22.20
2023-04-09T20:37:56.631Z,17.67
2023-04-09T20:40:24.609Z,17.17
2023-04-09T20:42:52.937Z,15.90
2023-04-09T20:45:20.442Z,15.50
2023-04-09T20:47:48.637Z,15.32
2023-04-09T20:50:17.361Z,17.03
2023-04-09T20:52:45.104Z,14.90
2023-04-09T20:55:12.898Z,16.15
2023-04-09T20:57:40.460Z,15.70
2023-04-09T21:00:10.330Z,15.38
2023-04-09T21:02:39.112Z,15.97
2023-04-09T21:05:19.509Z,17.37
2023-04-09T21:07:52.748Z,16.35
2023-04-09T21:10:20.929Z,14.20
2023-04-09T21:12:48.606Z,16.95
2023-04-09T21:15:16.543Z,16.17
2023-04-09T21:17:44.039Z,19.40
2023-04-09T21:20:12.064Z,18.23
2023-04-09T21:22:40.936Z,23.00
2023-04-09T21:25:08.777Z,26.70
2023-04-09T21:27:36.308Z,26.13
2023-04-09T21:30:05.338Z,20.85
2023-04-09T21:32:33.068Z,20.25
2023-04-09T21:35:00.815Z,20.27
2023-04-09T21:37:29.358Z,22.80
2023-04-09T21:39:58.101Z,21.33
2023-04-09T21:42:25.625Z,16.52
2023-04-09T21:44:53.918Z,20.77
2023-04-09T21:47:22.861Z,18.25
2023-04-09T21:49:50.419Z,23.52
2023-04-09T21:52:18.330Z,23.33
2023-04-09T21:54:46.543Z,21.25
2023-04-09T21:57:14.077Z,25.15
2023-04-09T21:59:42.236Z,21.27
2023-04-09T22:02:10.052Z,21.05
2023-04-09T22:04:38.223Z,20.70
2023-04-09T22:07:06.420Z,20.90
2023-04-09T22:09:34.071Z,22.77
2023-04-09T22:12:05.125Z,20.73
2023-04-09T22:14:32.981Z,21.42
2023-04-09T22:17:01.805Z,21.23
2023-04-09T22:19:31.311Z,19.40
2023-04-09T22:21:58.908Z,17.75
2023-04-09T22:24:30.304Z,18.77
2023-04-09T22:26:59.016Z,19.33
2023-04-09T22:29:27.909Z,19.07
2023-04-09T22:31:58.489Z,18.60
2023-04-09T22:34:26.687Z,20.05
2023-04-09T22:36:57.251Z,21.75
2023-04-09T22:39:24.944Z,20.17
2023-04-09T22:41:53.434Z,18.23
2023-04-09T22:44:20.977Z,19.25
2023-04-09T22:46:48.526Z,18.90
2023-04-09T22:49:17.560Z,18.62
2023-04-09T22:51:45.801Z,18.42
2023-04-09T22:54:13.298Z,20.00
2023-04-09T22:56:41.133Z,18.02
2023-04-09T22:59:08.688Z,19.20
2023-04-09T23:01:36.796Z,20.85
2023-04-09T23:04:04.753Z,21.92
2023-04-09T23:06:32.265Z,21.90
2023-04-09T23:09:00.521Z,20.73
2023-04-09T23:11:28.462Z,18.20
2023-04-09T23:13:56.118Z,20.35
2023-04-09T23:16:23.685Z,22.90
2023-04-09T23:18:51.962Z,23.03
2023-04-09T23:21:19.763Z,24.42
2023-04-09T23:23:47.274Z,20.27
2023-04-09T23:26:15.094Z,21.95
2023-04-09T23:28:42.599Z,22.35
2023-04-09T23:31:10.104Z,21.70
2023-04-09T23:33:38.083Z,22.30
2023-04-09T23:36:06.031Z,22.20
2023-04-09T23:38:33.605Z,23.52
2023-04-09T23:41:01.494Z,22.75
2023-04-09T23:43:28.993Z,22.27
2023-04-09T23:45:57.098Z,22.08
2023-04-09T23:48:24.901Z,23.52
2023-04-09T23:50:52.425Z,22.92
2023-04-09T23:53:20.442Z,25.12
2023-04-09T23:55:50.038Z,22.03
2023-04-09T23:58:17.772Z,22.10
